Time;durP1;ratioP1;P1;durP2;ratioP2;P2;SDS_P1;SDS_P2;PMS_P1;PMS_P2;Temp;Humidity;BMP_temperature;BMP_pressure;BME280_temperature;BME280_humidity;BME280_pressure;Samples;Min_cycle;Max_cycle;Signal;HPM_P1;HPM_P2
2022/03/22 00:00:29;;;;;;;56.33;37.22;;;;;;;8.60;77.18;102966.56;5022735;28;20049;-68
2022/03/22 00:02:55;;;;;;;58.30;37.25;;;;;;;8.57;77.62;102965.03;5021998;28;20029;-68
2022/03/22 00:05:20;;;;;;;61.85;38.60;;;;;;;8.61;77.34;102968.28;5023996;28;20447;-68
2022/03/22 00:07:45;;;;;;;63.00;38.33;;;;;;;8.55;77.12;102969.81;5023220;28;20041;-68
2022/03/22 00:10:11;;;;;;;57.53;37.55;;;;;;;8.56;77.56;102962.44;5021349;28;20032;-68
2022/03/22 00:12:36;;;;;;;60.05;37.15;;;;;;;8.50;77.20;102972.19;5022038;28;20045;-68
2022/03/22 00:15:03;;;;;;;58.75;39.08;;;;;;;8.43;77.65;102970.28;5023982;28;20097;-68
2022/03/22 00:17:29;;;;;;;58.20;36.60;;;;;;;8.41;77.95;102973.16;5012130;28;20029;-68
2022/03/22 00:19:55;;;;;;;60.25;37.88;;;;;;;8.38;78.13;102969.91;5024024;28;20170;-68
2022/03/22 00:22:21;;;;;;;60.05;37.70;;;;;;;8.35;77.97;102965.59;5022292;28;20044;-68
2022/03/22 00:24:47;;;;;;;60.92;37.92;;;;;;;8.35;78.52;102970.19;5023802;28;20429;-67
2022/03/22 00:27:12;;;;;;;53.10;36.85;;;;;;;8.31;77.96;102967.81;5023751;28;20156;-67
2022/03/22 00:29:37;;;;;;;58.22;36.95;;;;;;;8.30;78.29;102970.69;5022921;28;20030;-68
2022/03/22 00:32:03;;;;;;;59.88;38.13;;;;;;;8.24;78.30;102966.72;5021998;28;20049;-67
2022/03/22 00:34:28;;;;;;;58.55;38.00;;;;;;;8.25;78.16;102975.81;5023462;28;20515;-68
2022/03/22 00:36:58;;;;;;;60.67;38.30;;;;;;;8.21;77.98;102971.66;5023777;28;20033;-68
2022/03/22 00:39:24;;;;;;;57.75;36.97;;;;;;;8.18;78.71;102972.00;5022144;28;20370;-68
2022/03/22 00:41:50;;;;;;;60.25;38.97;;;;;;;8.16;78.30;102979.50;5023293;28;20589;-69
2022/03/22 00:44:15;;;;;;;57.13;37.88;;;;;;;8.12;78.29;102979.00;5022588;28;20064;-68
2022/03/22 00:46:40;;;;;;;62.17;39.30;;;;;;;8.07;78.69;102981.38;5022914;28;20025;-68
2022/03/22 00:49:05;;;;;;;55.75;37.83;;;;;;;8.04;78.70;102982.53;5021878;28;20021;-68
2022/03/22 00:51:31;;;;;;;58.70;37.13;;;;;;;8.00;78.83;102980.28;5023073;28;20073;-68
2022/03/22 00:53:59;;;;;;;58.55;38.25;;;;;;;7.94;78.52;102983.66;5022643;28;20036;-68
2022/03/22 00:56:25;;;;;;;60.67;39.08;;;;;;;7.90;79.32;102971.31;5023078;28;20028;-68
2022/03/22 01:00:01;;;;;;;60.30;38.42;;;;;;;7.85;79.13;102977.25;5022282;28;20049;-68
2022/03/22 01:01:36;;;;;;;60.30;38.85;;;;;;;7.76;78.96;102990.06;5022809;28;20050;-69
2022/03/22 01:04:04;;;;;;;60.42;40.30;;;;;;;7.70;79.25;102984.34;5023421;28;20025;-68
2022/03/22 01:06:29;;;;;;;59.75;39.10;;;;;;;7.64;79.45;102980.38;5023078;28;20037;-69
2022/03/22 01:08:55;;;;;;;60.15;39.45;;;;;;;7.58;79.86;102986.47;5022259;28;20064;-67
2022/03/22 01:11:20;;;;;;;59.10;38.88;;;;;;;7.56;79.86;102987.66;5023002;28;20096;-68
2022/03/22 01:13:45;;;;;;;58.20;38.85;;;;;;;7.52;79.81;102984.38;5022803;28;20025;-68
2022/03/22 01:16:11;;;;;;;62.92;39.13;;;;;;;7.41;79.81;102990.09;5020702;28;20392;-67
2022/03/22 01:18:36;;;;;;;59.05;38.95;;;;;;;7.39;80.21;102986.66;5017966;28;20555;-67
2022/03/22 01:21:01;;;;;;;60.17;38.83;;;;;;;7.36;80.70;102986.97;5014664;28;20017;-68
2022/03/22 01:23:27;;;;;;;58.65;38.90;;;;;;;7.38;80.76;102987.66;5018202;28;20060;-68
2022/03/22 01:25:52;;;;;;;59.20;39.92;;;;;;;7.34;80.82;102995.31;5025919;28;20040;-68
2022/03/22 01:28:18;;;;;;;63.28;39.13;;;;;;;7.31;80.84;102984.72;5025759;28;20032;-68
2022/03/22 01:30:44;;;;;;;59.45;40.10;;;;;;;7.28;80.97;102988.59;5026166;28;20385;-68
2022/03/22 01:33:11;;;;;;;59.88;39.20;;;;;;;7.28;80.65;102994.06;5026706;28;20464;-66
2022/03/22 01:35:38;;;;;;;59.17;37.80;;;;;;;7.25;80.61;102988.94;5025172;28;20029;-68
2022/03/22 01:38:03;;;;;;;58.88;39.10;;;;;;;7.24;80.66;102989.06;5025597;28;20112;-68
2022/03/22 01:40:30;;;;;;;59.22;37.90;;;;;;;7.21;80.75;102981.22;5026404;28;20113;-68
2022/03/22 01:42:56;;;;;;;57.83;39.47;;;;;;;7.24;81.33;102989.94;5025629;28;20021;-67
2022/03/22 01:45:21;;;;;;;59.17;37.80;;;;;;;7.29;81.41;102984.84;5025582;28;20055;-67
2022/03/22 01:47:48;;;;;;;60.90;38.60;;;;;;;7.33;81.37;102984.56;5025643;28;20025;-67
2022/03/22 01:50:16;;;;;;;54.10;37.50;;;;;;;7.35;81.03;102988.84;5025642;28;20041;-67
2022/03/22 01:52:43;;;;;;;56.63;38.28;;;;;;;7.36;80.48;102987.84;5024865;28;20029;-68
2022/03/22 01:55:10;;;;;;;58.72;38.90;;;;;;;7.36;80.78;102976.91;5025746;28;20068;-68
2022/03/22 01:57:36;;;;;;;55.80;36.97;;;;;;;7.33;80.24;102979.94;5025636;28;20113;-68
2022/03/22 02:00:08;;;;;;;57.80;38.03;;;;;;;7.31;80.69;102976.50;5025886;28;20049;-67
2022/03/22 02:08:06;;;;;;;54.95;38.05;;;;;;;7.10;80.83;102987.75;5024264;28;20599;-68
2022/03/22 02:10:31;;;;;;;60.10;38.20;;;;;;;7.06;80.84;102980.88;5026009;28;20084;-68
2022/03/22 02:12:57;;;;;;;59.20;37.67;;;;;;;7.00;80.89;102976.91;5023767;28;20451;-68
2022/03/22 02:15:22;;;;;;;58.33;36.60;;;;;;;6.96;81.01;102975.50;5025907;28;20032;-68
2022/03/22 02:17:50;;;;;;;58.20;36.70;;;;;;;6.96;81.32;102971.91;5023194;28;20041;-68
2022/03/22 02:20:16;;;;;;;56.90;36.47;;;;;;;6.91;80.86;102971.50;5025623;28;20373;-68
2022/03/22 02:22:58;;;;;;;52.75;36.63;;;;;;;6.86;81.51;102973.84;5024765;28;20037;-68
2022/03/22 02:25:23;;;;;;;61.33;37.53;;;;;;;6.82;81.77;102970.56;5024387;28;20037;-68
2022/03/22 02:27:52;;;;;;;54.50;36.63;;;;;;;6.70;81.82;102974.53;5012717;28;20542;-68
2022/03/22 02:30:17;;;;;;;54.60;36.83;;;;;;;6.65;82.00;102974.13;5025452;28;20108;-67
2022/03/22 02:32:54;;;;;;;55.85;36.17;;;;;;;6.61;82.17;102973.56;5025007;28;20136;-68
2022/03/22 02:35:21;;;;;;;55.65;36.60;;;;;;;6.55;82.16;102976.06;5025587;28;20111;-68
2022/03/22 02:37:46;;;;;;;59.90;36.58;;;;;;;6.51;82.02;102972.75;5024541;28;20061;-68
2022/03/22 02:40:13;;;;;;;58.55;36.78;;;;;;;6.49;82.50;102977.53;5025973;28;20053;-67
2022/03/22 02:42:42;;;;;;;57.35;37.35;;;;;;;6.48;82.25;102975.78;5023106;28;20041;-67
2022/03/22 02:45:09;;;;;;;53.72;34.90;;;;;;;6.49;82.50;102977.53;5026307;28;20039;-68
2022/03/22 02:47:34;;;;;;;56.85;38.10;;;;;;;6.44;82.59;102971.66;5024418;28;20104;-68
2022/03/22 02:50:00;;;;;;;56.55;35.90;;;;;;;6.42;83.01;102977.25;5021317;28;20080;-68
2022/03/22 02:52:25;;;;;;;56.08;36.00;;;;;;;6.38;82.90;102978.53;5014264;28;20112;-68
2022/03/22 02:54:50;;;;;;;51.92;36.83;;;;;;;6.36;82.84;102977.00;5025414;28;20131;-68
2022/03/22 02:57:15;;;;;;;55.90;36.35;;;;;;;6.33;83.23;102974.56;5024589;28;20040;-68
2022/03/22 02:59:41;;;;;;;56.38;36.00;;;;;;;6.30;83.14;102974.88;5023371;28;20488;-68
2022/03/22 03:02:06;;;;;;;53.10;35.17;;;;;;;6.30;83.36;102978.47;5023677;28;20076;-68
2022/03/22 03:04:31;;;;;;;54.33;35.67;;;;;;;6.30;83.22;102985.78;5025327;23;20052;-68
2022/03/22 03:06:56;;;;;;;57.92;35.20;;;;;;;6.27;83.33;102980.63;5020571;28;20114;-69
2022/03/22 03:09:21;;;;;;;56.42;36.83;;;;;;;6.25;83.29;102986.25;5023969;28;20029;-69
2022/03/22 03:11:47;;;;;;;56.20;35.28;;;;;;;6.24;83.71;102979.06;5024100;28;20033;-68
2022/03/22 03:16:56;;;;;;;51.90;34.47;;;;;;;6.20;83.09;102983.09;5012378;28;20095;-68
2022/03/22 03:19:21;;;;;;;52.15;34.47;;;;;;;6.18;83.47;102988.72;5017349;28;20026;-70
2022/03/22 03:21:47;;;;;;;55.25;35.22;;;;;;;6.16;83.19;102987.13;5012167;28;20136;-68
2022/03/22 03:24:12;;;;;;;50.72;35.42;;;;;;;6.14;83.16;102984.56;5024892;28;20498;-70
2022/03/22 03:26:37;;;;;;;50.72;35.50;;;;;;;6.11;83.56;102981.25;5025112;28;20061;-70
2022/03/22 03:29:03;;;;;;;52.03;34.67;;;;;;;6.07;83.53;102977.97;5022563;28;20395;-69
2022/03/22 03:31:29;;;;;;;53.17;35.22;;;;;;;6.04;83.64;102985.59;5023903;28;20098;-70
2022/03/22 03:33:54;;;;;;;53.20;35.28;;;;;;;6.03;84.16;102981.13;5025013;28;20037;-69
2022/03/22 03:36:20;;;;;;;53.25;35.72;;;;;;;5.99;84.24;102986.03;5017552;28;20392;-69
2022/03/22 03:38:45;;;;;;;48.10;34.25;;;;;;;5.96;84.04;102991.78;5004158;28;20090;-70
2022/03/22 03:43:57;;;;;;;54.47;34.25;;;;;;;5.85;84.34;103002.84;5007107;28;20072;-70
2022/03/22 03:49:07;;;;;;;51.67;34.40;;;;;;;5.87;84.64;103004.41;5024589;28;20065;-69
2022/03/22 03:51:34;;;;;;;47.30;33.75;;;;;;;5.91;85.21;103004.97;5022927;28;20415;-69
2022/03/22 03:53:59;;;;;;;54.65;35.67;;;;;;;5.91;84.69;103004.97;5024524;28;20029;-69
2022/03/22 03:56:25;;;;;;;54.35;34.40;;;;;;;5.91;84.86;103000.41;5024103;28;20036;-69
2022/03/22 03:58:51;;;;;;;53.42;33.72;;;;;;;5.92;84.26;103004.84;5022930;28;20033;-69
2022/03/22 04:01:16;;;;;;;51.17;34.28;;;;;;;5.93;84.66;103011.16;5023527;28;20099;-70
2022/03/22 04:03:41;;;;;;;57.60;35.85;;;;;;;5.90;84.60;103014.16;5024216;28;20034;-69
2022/03/22 04:06:06;;;;;;;53.38;36.10;;;;;;;5.88;84.81;103011.59;5023487;28;20061;-69
2022/03/22 04:08:32;;;;;;;52.42;33.85;;;;;;;5.86;84.89;103013.59;5023244;28;20029;-70
2022/03/22 04:10:57;;;;;;;51.83;34.25;;;;;;;5.82;84.95;103014.03;5023695;28;20025;-70
2022/03/22 04:13:22;;;;;;;56.00;34.95;;;;;;;5.83;84.96;103015.75;5023383;28;20037;-70
2022/03/22 04:15:47;;;;;;;54.17;34.05;;;;;;;5.83;84.83;103019.34;5022516;28;20026;-69
2022/03/22 04:18:14;;;;;;;51.58;33.33;;;;;;;5.80;84.72;103014.19;5015584;28;20040;-69
2022/03/22 04:20:39;;;;;;;50.10;33.08;;;;;;;5.73;84.56;103013.91;5022009;28;20511;-70
2022/03/22 04:23:04;;;;;;;49.35;33.60;;;;;;;5.72;84.71;103019.50;5024048;28;20041;-69
2022/03/22 04:25:30;;;;;;;52.67;34.55;;;;;;;5.70;84.42;103016.06;5023823;28;20455;-69
2022/03/22 04:33:23;;;;;;;53.50;33.97;;;;;;;5.54;84.89;103022.09;5023743;28;20044;-69
2022/03/22 04:35:48;;;;;;;53.25;35.58;;;;;;;5.47;84.86;103019.09;5022523;28;20025;-70
2022/03/22 04:38:13;;;;;;;53.65;34.42;;;;;;;5.44;84.94;103019.38;5023474;28;20041;-69
2022/03/22 04:40:40;;;;;;;51.28;34.00;;;;;;;5.46;85.12;103019.22;5022509;28;20039;-70
2022/03/22 04:43:06;;;;;;;54.85;34.70;;;;;;;5.45;85.17;103015.66;5023097;28;20108;-69
2022/03/22 04:45:32;;;;;;;50.63;34.40;;;;;;;5.48;85.13;103017.25;5022885;28;20079;-70
2022/03/22 04:47:57;;;;;;;51.15;33.75;;;;;;;5.45;84.92;103015.66;5022901;28;20029;-69
2022/03/22 04:50:22;;;;;;;50.10;32.22;;;;;;;5.42;84.93;103015.06;5020680;28;20414;-70
2022/03/22 04:56:43;;;;;;;51.22;33.28;;;;;;;5.35;85.35;103028.41;5022823;28;20095;-69
2022/03/22 04:58:35;;;;;;;53.97;36.58;;;;;;;5.31;85.55;103023.38;5022655;28;20531;-70
2022/03/22 05:01:01;;;;;;;51.88;34.00;;;;;;;5.28;85.56;103024.53;5024111;28;20029;-70
2022/03/22 05:03:26;;;;;;;48.08;33.80;;;;;;;5.25;85.53;103029.41;5027417;28;20030;-70
2022/03/22 05:08:35;;;;;;;52.78;33.40;;;;;;;5.25;85.32;103037.59;5027616;28;20195;-70
2022/03/22 05:11:00;;;;;;;54.20;34.97;;;;;;;5.21;85.75;103032.41;5026576;28;20120;-70
2022/03/22 05:13:25;;;;;;;61.22;35.83;;;;;;;5.23;85.78;103034.16;5026469;28;20365;-70
2022/03/22 05:15:51;;;;;;;54.47;35.20;;;;;;;5.19;86.04;103034.44;5026112;28;20417;-70
2022/03/22 05:18:17;;;;;;;56.75;36.35;;;;;;;5.18;86.34;103040.88;5022764;28;20034;-70
2022/03/22 05:20:43;;;;;;;53.90;35.20;;;;;;;5.20;86.24;103044.31;5025188;28;20017;-70
2022/03/22 05:23:08;;;;;;;55.13;34.78;;;;;;;5.18;86.56;103038.16;5025870;28;20030;-66
2022/03/22 05:25:33;;;;;;;51.88;35.42;;;;;;;5.16;86.42;103042.88;5024656;28;20025;-72
2022/03/22 05:28:00;;;;;;;51.63;34.50;;;;;;;5.20;86.57;103049.75;5025179;28;20368;-71
2022/03/22 05:30:25;;;;;;;52.78;34.17;;;;;;;5.21;86.56;103051.47;5022874;28;20411;-72
2022/03/22 05:32:51;;;;;;;51.42;34.15;;;;;;;5.19;86.61;103050.78;5023834;28;20029;-71
2022/03/22 05:35:16;;;;;;;54.80;35.05;;;;;;;5.19;86.46;103056.22;5024597;28;20032;-72
2022/03/22 05:37:41;;;;;;;50.55;34.20;;;;;;;5.23;86.92;103058.66;5025901;28;20030;-71
2022/03/22 05:40:07;;;;;;;52.90;35.13;;;;;;;5.30;87.19;103059.81;5027680;28;20025;-71
2022/03/22 05:42:37;;;;;;;58.20;37.45;;;;;;;5.33;86.83;103065.84;5025416;28;20059;-71
2022/03/22 05:45:02;;;;;;;56.85;35.25;;;;;;;5.36;86.47;103054.66;5021758;28;20243;-71
2022/03/22 05:47:28;;;;;;;51.33;33.45;;;;;;;5.35;86.23;103061.09;5020567;28;20424;-71
2022/03/22 05:49:54;;;;;;;52.67;34.72;;;;;;;5.36;86.31;103053.78;5024491;28;20098;-72
2022/03/22 05:52:19;;;;;;;53.80;35.50;;;;;;;5.41;86.46;103056.94;5024036;28;20140;-71
2022/03/22 05:54:45;;;;;;;57.22;35.75;;;;;;;5.46;86.36;103051.94;5026046;28;20533;-71
2022/03/22 05:57:10;;;;;;;52.97;33.90;;;;;;;5.47;85.83;103053.66;5025102;28;20033;-70
2022/03/22 05:59:35;;;;;;;52.53;34.65;;;;;;;5.50;85.85;103056.09;5026518;28;20082;-71
2022/03/22 06:02:00;;;;;;;53.13;33.13;;;;;;;5.51;85.33;103060.53;5024744;28;20502;-71
2022/03/22 06:04:26;;;;;;;53.85;34.00;;;;;;;5.53;85.35;103055.81;5025508;28;20045;-72
2022/03/22 06:06:51;;;;;;;52.55;34.47;;;;;;;5.57;85.36;103067.28;5024196;28;20021;-72
2022/03/22 06:09:16;;;;;;;59.03;36.22;;;;;;;5.65;85.08;103061.97;5026129;28;20376;-71
2022/03/22 06:11:42;;;;;;;55.38;35.45;;;;;;;5.72;84.78;103066.69;5023979;28;20082;-71
2022/03/22 06:14:08;;;;;;;56.97;35.53;;;;;;;5.82;84.60;103065.84;5025756;28;20025;-67
2022/03/22 06:16:33;;;;;;;59.20;35.78;;;;;;;5.90;84.23;103065.97;5023339;28;20039;-71
2022/03/22 06:18:59;;;;;;;56.25;34.58;;;;;;;6.02;84.00;103069.44;5025379;28;20693;-70
2022/03/22 06:21:24;;;;;;;55.38;35.58;;;;;;;6.12;83.68;103068.41;5023964;28;20034;-70
2022/03/22 06:23:50;;;;;;;59.33;36.10;;;;;;;6.28;82.80;103083.31;5019815;28;20042;-71
2022/03/22 06:26:16;;;;;;;55.10;34.95;;;;;;;6.40;82.46;103071.22;5023920;28;20033;-70
2022/03/22 06:28:42;;;;;;;54.10;34.92;;;;;;;6.49;81.73;103076.66;5023709;28;20148;-70
2022/03/22 06:31:07;;;;;;;56.22;34.53;;;;;;;6.56;81.69;103079.63;5025465;28;20025;-71
2022/03/22 06:33:33;;;;;;;55.20;34.15;;;;;;;6.64;81.26;103073.41;5023408;28;20387;-72
2022/03/22 06:35:59;;;;;;;52.90;35.28;;;;;;;6.73;80.76;103075.25;5021803;28;20083;-71
2022/03/22 06:38:24;;;;;;;56.70;35.47;;;;;;;6.83;80.11;103069.72;5021785;28;20384;-70
2022/03/22 06:40:50;;;;;;;59.55;35.80;;;;;;;6.94;79.64;103073.13;5022407;28;20057;-72
2022/03/22 06:43:17;;;;;;;54.50;35.10;;;;;;;7.03;79.39;103082.28;5021979;28;20451;-72
2022/03/22 06:45:44;;;;;;;56.50;34.67;;;;;;;7.11;78.85;103073.34;5021246;28;20033;-72
2022/03/22 06:48:10;;;;;;;52.72;34.80;;;;;;;7.20;78.48;103081.47;5024093;28;20025;-68
2022/03/22 06:50:37;;;;;;;54.38;35.30;;;;;;;7.36;78.47;103079.94;5023259;28;20039;-72
2022/03/22 06:53:04;;;;;;;55.75;34.70;;;;;;;7.50;77.31;103084.84;5022032;28;20450;-72
2022/03/22 06:55:32;;;;;;;63.63;37.72;;;;;;;7.59;77.59;103080.31;5025043;28;20029;-72
2022/03/22 06:57:58;;;;;;;57.30;37.22;;;;;;;7.70;77.44;103083.66;5024745;28;20022;-71
2022/03/22 07:00:24;;;;;;;60.55;37.80;;;;;;;7.86;76.78;103090.31;5024662;28;20035;-71
2022/03/22 07:02:49;;;;;;;59.78;37.63;;;;;;;8.03;76.13;103090.28;5022420;28;20029;-72
2022/03/22 07:05:15;;;;;;;53.85;36.20;;;;;;;8.19;75.40;103091.44;5024599;28;20045;-72
2022/03/22 07:07:42;;;;;;;57.50;36.42;;;;;;;8.35;75.61;103096.16;5025093;28;20434;-72
2022/03/22 07:10:10;;;;;;;57.50;37.67;;;;;;;8.49;74.20;103090.97;5024210;28;20029;-73
2022/03/22 07:12:55;;;;;;;58.13;36.60;;;;;;;8.61;72.72;103088.81;5021688;28;20192;-72
2022/03/22 07:15:34;;;;;;;58.88;38.03;;;;;;;8.71;72.46;103091.44;5009909;28;20100;-71
2022/03/22 07:18:03;;;;;;;63.78;38.63;;;;;;;8.76;72.31;103087.16;5020146;28;20041;-71
2022/03/22 07:20:29;;;;;;;61.67;37.97;;;;;;;8.87;72.52;103097.00;5024777;28;20029;-72
2022/03/22 07:22:54;;;;;;;58.80;37.25;;;;;;;8.97;71.13;103092.25;5011868;28;20400;-72
2022/03/22 07:25:20;;;;;;;56.38;37.65;;;;;;;9.03;70.97;103090.72;5004732;28;20104;-73
2022/03/22 07:27:46;;;;;;;55.65;37.35;;;;;;;9.11;70.77;103096.22;5002885;28;20480;-72
2022/03/22 07:30:12;;;;;;;57.72;36.67;;;;;;;9.23;70.14;103089.44;5005020;28;20132;-72
2022/03/22 07:32:39;;;;;;;60.25;38.50;;;;;;;9.43;70.24;103092.75;5013998;28;20121;-73
2022/03/22 07:35:06;;;;;;;57.80;37.00;;;;;;;9.65;69.01;103093.97;5022697;28;20075;-73
2022/03/22 07:37:32;;;;;;;61.00;38.47;;;;;;;10.04;68.40;103096.91;5023300;28;20029;-74
2022/03/22 07:39:58;;;;;;;56.13;36.55;;;;;;;10.33;66.72;103099.13;5024715;28;20029;-73
2022/03/22 07:42:27;;;;;;;54.53;36.72;;;;;;;10.58;65.38;103099.09;5023601;28;20064;-72
2022/03/22 07:44:55;;;;;;;57.40;36.50;;;;;;;10.94;63.83;103095.88;5023920;28;20030;-74
2022/03/22 07:47:20;;;;;;;55.42;37.22;;;;;;;11.17;64.53;103096.81;5013785;28;20033;-73
2022/03/22 07:55:13;;;;;;;54.63;35.55;;;;;;;12.47;58.69;103094.97;5024004;28;20040;-74
2022/03/22 07:57:39;;;;;;;54.15;36.63;;;;;;;12.49;57.95;103092.03;5014011;28;20029;-72
2022/03/22 08:00:05;;;;;;;52.78;36.63;;;;;;;12.62;57.49;103092.19;5019103;28;20030;-73
2022/03/22 08:02:32;;;;;;;54.13;37.72;;;;;;;12.85;57.36;103092.13;5016293;28;20034;-73
2022/03/22 08:04:58;;;;;;;59.57;39.47;;;;;;;13.15;56.39;103095.69;5020423;28;20069;-73
2022/03/22 08:07:23;;;;;;;56.28;39.05;;;;;;;13.41;55.25;103093.28;5036139;28;20454;-74
2022/03/22 08:09:48;;;;;;;54.80;38.50;;;;;;;13.30;55.82;103091.03;5023762;28;20113;-75
2022/03/22 08:12:13;;;;;;;57.67;39.25;;;;;;;13.69;55.57;103100.84;5020969;28;20086;-77
2022/03/22 08:14:39;;;;;;;53.80;37.70;;;;;;;13.89;54.34;103096.34;5020097;28;20491;-74
2022/03/22 08:17:04;;;;;;;57.10;39.28;;;;;;;13.92;53.32;103103.38;5019290;28;20506;-74
2022/03/22 08:19:30;;;;;;;62.20;43.38;;;;;;;14.09;54.99;103101.19;5019346;28;20037;-76
2022/03/22 08:21:56;;;;;;;60.42;42.33;;;;;;;14.25;55.02;103106.44;5019446;28;20049;-76
2022/03/22 08:24:22;;;;;;;56.65;38.90;;;;;;;14.46;52.82;103102.78;5016813;28;20434;-75
2022/03/22 08:26:48;;;;;;;53.78;40.40;;;;;;;14.52;52.41;103102.00;5016934;28;20149;-75
2022/03/22 08:29:14;;;;;;;53.92;39.03;;;;;;;15.03;52.15;103105.28;5023343;28;20065;-74
2022/03/22 08:31:39;;;;;;;52.72;37.85;;;;;;;15.43;50.31;103104.59;5021746;28;20072;-74
2022/03/22 08:34:04;;;;;;;50.75;36.38;;;;;;;15.45;51.04;103110.78;5022102;28;20040;-73
2022/03/22 08:36:29;;;;;;;51.80;38.45;;;;;;;15.39;49.33;103106.91;5023909;28;20084;-75
2022/03/22 08:38:57;;;;;;;49.17;35.60;;;;;;;15.75;49.02;103100.22;5026542;28;20468;-75
2022/03/22 08:41:23;;;;;;;50.65;36.85;;;;;;;16.08;48.45;103103.91;5023052;28;20021;-76
2022/03/22 08:43:48;;;;;;;50.67;37.75;;;;;;;16.11;48.60;103102.59;5024054;28;20471;-76
2022/03/22 08:46:14;;;;;;;53.35;38.97;;;;;;;16.18;48.57;103108.19;5020860;28;20026;-76
2022/03/22 08:48:39;;;;;;;57.10;41.47;;;;;;;16.17;48.33;103107.31;5021207;28;20033;-78
2022/03/22 08:51:05;;;;;;;54.00;39.80;;;;;;;16.62;48.90;103104.69;5024566;28;20547;-76
2022/03/22 08:53:31;;;;;;;56.15;40.08;;;;;;;16.54;47.79;103103.03;5014460;28;20034;-74
2022/03/22 08:55:56;;;;;;;61.75;42.03;;;;;;;16.72;47.94;103105.13;5023030;28;20068;-73
2022/03/22 08:58:21;;;;;;;54.47;37.15;;;;;;;17.04;46.13;103108.91;5024391;28;20067;-75
2022/03/22 09:00:47;;;;;;;52.17;37.58;;;;;;;17.33;45.09;103107.50;5024364;28;20109;-73
2022/03/22 09:03:12;;;;;;;51.60;38.28;;;;;;;17.96;44.45;103103.09;5025407;28;20029;-74
2022/03/22 09:08:22;;;;;;;47.33;35.72;;;;;;;19.68;39.78;103101.25;5025489;28;20048;-73
2022/03/22 09:10:50;;;;;;;49.28;33.58;;;;;;;21.05;37.59;103103.81;5025450;28;20026;-73
2022/03/22 09:13:16;;;;;;;49.92;35.20;;;;;;;22.09;35.43;103105.56;5022258;28;20033;-76
2022/03/22 09:15:41;;;;;;;46.47;34.67;;;;;;;22.59;33.48;103101.91;5022062;28;20018;-76
2022/03/22 09:18:13;;;;;;;45.78;34.05;;;;;;;23.02;31.78;103104.81;5025107;28;20067;-74
2022/03/22 09:20:39;;;;;;;45.95;33.60;;;;;;;23.61;30.94;103106.06;5022315;28;20057;-71
2022/03/22 09:23:04;;;;;;;46.47;32.72;;;;;;;24.05;31.26;103104.88;5025855;28;20041;-70
2022/03/22 09:25:29;;;;;;;45.53;34.17;;;;;;;23.58;30.41;103104.66;5025917;28;20071;-71
2022/03/22 09:27:55;;;;;;;51.42;34.25;;;;;;;23.59;30.13;103106.34;5025879;28;20028;-72
2022/03/22 09:30:20;;;;;;;43.72;31.30;;;;;;;23.59;29.43;103102.69;5025696;28;20484;-72
2022/03/22 09:32:47;;;;;;;43.75;31.10;;;;;;;24.40;28.83;103095.06;5025215;28;20037;-71
2022/03/22 09:35:19;;;;;;;47.75;31.90;;;;;;;25.01;28.53;103098.25;5027262;28;20404;-71
2022/03/22 09:37:46;;;;;;;41.28;30.85;;;;;;;25.60;27.52;103099.91;5021871;28;20038;-71
2022/03/22 09:40:13;;;;;;;43.92;30.75;;;;;;;26.06;27.08;103100.00;5006811;28;20396;-71
2022/03/22 09:42:43;;;;;;;43.67;31.42;;;;;;;26.22;26.71;103098.84;5007063;28;20591;-72
2022/03/22 09:45:10;;;;;;;42.25;31.25;;;;;;;26.26;25.62;103099.16;5023612;28;20162;-65
2022/03/22 09:47:36;;;;;;;40.30;30.87;;;;;;;26.33;25.32;103092.09;5026745;28;20036;-73
2022/03/22 09:50:03;;;;;;;40.55;31.00;;;;;;;26.83;25.29;103095.13;5023459;28;20067;-74
2022/03/22 09:52:29;;;;;;;40.53;31.83;;;;;;;25.93;25.73;103094.91;5012906;28;20021;-74
2022/03/22 09:54:54;;;;;;;43.53;31.98;;;;;;;26.48;25.98;103088.44;5023855;28;20055;-74
2022/03/22 09:57:20;;;;;;;42.90;31.88;;;;;;;26.64;26.12;103080.78;5024751;28;20051;-74
2022/03/22 09:59:45;;;;;;;42.10;31.20;;;;;;;27.49;24.18;103083.56;5023424;28;20021;-75
2022/03/22 10:02:10;;;;;;;47.90;30.77;;;;;;;27.30;24.70;103091.84;5024073;28;20021;-76
2022/03/22 10:04:41;;;;;;;43.50;32.78;;;;;;;26.77;24.54;103088.66;5024003;28;20041;-77
2022/03/22 10:07:16;;;;;;;42.72;31.38;;;;;;;25.98;24.41;103078.00;5023388;28;20022;-74
2022/03/22 10:09:41;;;;;;;41.20;32.13;;;;;;;25.91;24.63;103081.13;5024911;28;20468;-74
2022/03/22 10:12:08;;;;;;;41.95;31.65;;;;;;;26.79;25.23;103077.09;5024401;28;20086;-73
2022/03/22 10:14:41;;;;;;;42.20;32.25;;;;;;;27.55;25.39;103092.84;5023257;28;20025;-73
2022/03/22 10:17:13;;;;;;;43.50;31.58;;;;;;;27.87;23.99;103081.91;5025577;28;20384;-73
2022/03/22 10:19:50;;;;;;;45.40;31.52;;;;;;;28.37;23.39;103074.16;5023317;28;20124;-67
2022/03/22 10:22:16;;;;;;;46.58;32.15;;;;;;;28.46;22.81;103070.69;5023183;28;20530;-74
2022/03/22 10:24:50;;;;;;;41.60;31.05;;;;;;;28.61;23.84;103070.53;5022212;28;20029;-75
2022/03/22 10:27:26;;;;;;;43.78;32.00;;;;;;;29.16;22.76;103065.34;5023431;28;20079;-75
2022/03/22 10:29:52;;;;;;;42.38;31.27;;;;;;;29.35;22.72;103066.22;5023635;28;20021;-75
2022/03/22 10:32:27;;;;;;;41.53;30.80;;;;;;;29.51;21.95;103072.50;5022041;28;20410;-75
2022/03/22 10:34:53;;;;;;;42.50;30.17;;;;;;;29.43;20.56;103065.50;5022406;28;20021;-75
2022/03/22 10:37:26;;;;;;;40.10;29.13;;;;;;;28.81;22.18;103063.78;5024297;28;20063;-75
2022/03/22 10:39:52;;;;;;;43.47;30.63;;;;;;;28.66;21.59;103053.50;5021363;28;20026;-74
2022/03/22 10:42:22;;;;;;;40.42;28.70;;;;;;;29.08;21.32;103066.84;5021079;28;20028;-74
2022/03/22 10:44:50;;;;;;;42.58;28.27;;;;;;;29.53;20.31;103064.53;5024948;28;20037;-74
2022/03/22 10:47:27;;;;;;;37.55;28.05;;;;;;;29.84;20.80;103062.06;5022749;28;20091;-75
2022/03/22 10:50:05;;;;;;;39.40;27.80;;;;;;;29.91;20.55;103058.88;5023898;28;20029;-75
2022/03/22 10:52:30;;;;;;;41.00;28.00;;;;;;;29.76;18.84;103051.47;5021101;28;20029;-76
2022/03/22 10:54:56;;;;;;;42.53;30.38;;;;;;;30.21;19.77;103058.34;5023837;28;20083;-75
2022/03/22 10:57:29;;;;;;;39.87;29.27;;;;;;;30.53;19.26;103050.09;5021334;28;20087;-75
2022/03/22 10:59:55;;;;;;;40.72;29.05;;;;;;;30.32;18.74;103059.00;5021098;28;20690;-75
2022/03/22 11:02:24;;;;;;;40.35;28.17;;;;;;;30.12;19.76;103043.22;5023506;28;20040;-77
2022/03/22 11:04:50;;;;;;;39.03;28.70;;;;;;;30.78;19.03;103049.63;5020854;28;20381;-77
2022/03/22 11:07:16;;;;;;;42.92;29.15;;;;;;;31.25;18.95;103044.63;5022697;28;20026;-75
2022/03/22 11:09:42;;;;;;;41.50;30.00;;;;;;;30.81;18.27;103048.97;5024080;28;20024;-76
2022/03/22 11:12:08;;;;;;;40.63;28.77;;;;;;;30.98;20.46;103048.34;5021336;28;20128;-76
2022/03/22 11:14:34;;;;;;;40.33;28.42;;;;;;;31.11;18.18;103046.63;5024916;28;20026;-77
2022/03/22 11:17:00;;;;;;;40.47;24.02;;;;;;;29.53;20.09;103043.84;5022581;28;20052;-75
2022/03/22 11:19:26;;;;;;;39.35;28.73;;;;;;;29.00;20.97;103038.41;5022657;28;20041;-75
2022/03/22 11:21:51;;;;;;;37.97;28.20;;;;;;;29.30;21.05;103037.97;5021624;28;20100;-76
2022/03/22 11:24:23;;;;;;;40.63;27.88;;;;;;;29.33;21.81;103034.53;5019230;28;21027;-78
2022/03/22 11:26:55;;;;;;;37.20;27.92;;;;;;;29.68;20.05;103035.16;5021960;28;20476;-79
2022/03/22 11:29:23;;;;;;;39.08;26.65;;;;;;;29.83;19.61;103037.72;5024113;28;20447;-77
2022/03/22 11:34:08;;;;;;;;;;;;;;;30.70;21.23;103039.00;5023608;28;20045;-76
2022/03/22 11:34:33;;;;;;;40.45;28.70;;;;;;;30.66;19.24;103033.06;5023111;28;19928;-76
2022/03/22 11:36:59;;;;;;;39.75;29.20;;;;;;;30.48;19.43;103032.03;5017519;28;20329;-76
2022/03/22 11:42:16;;;;;;;41.03;28.25;;;;;;;29.52;19.71;103025.19;5024003;28;20642;-76
2022/03/22 11:44:41;;;;;;;39.92;27.92;;;;;;;29.46;19.70;103025.28;5024927;28;20029;-75
2022/03/22 11:47:17;;;;;;;45.70;29.00;;;;;;;29.30;20.95;103029.50;5023847;28;20037;-74